sensor_id;sensor_type;location;lat;lon;timestamp;temperature;humidity
5834;DHT22;2943;48.012;10.968;2023-12-20T00:02:24;5.00;99.90
5834;DHT22;2943;48.012;10.968;2023-12-20T00:04:51;5.10;99.90
5834;DHT22;2943;48.012;10.968;2023-12-20T00:07:19;5.00;99.90
5834;DHT22;2943;48.012;10.968;2023-12-20T00:09:46;5.10;99.90
5834;DHT22;2943;48.012;10.968;2023-12-20T00:12:13;5.10;99.90
5834;DHT22;2943;48.012;10.968;2023-12-20T00:14:43;5.10;99.90
5834;DHT22;2943;48.012;10.968;2023-12-20T00:17:10;5.10;99.90
5834;DHT22;2943;48.012;10.968;2023-12-20T00:19:37;5.20;99.90
5834;DHT22;2943;48.012;10.968;2023-12-20T00:22:04;5.20;99.90
5834;DHT22;2943;48.012;10.968;2023-12-20T00:24:31;5.20;99.90
5834;DHT22;2943;48.012;10.968;2023-12-20T00:26:58;5.20;99.90
5834;DHT22;2943;48.012;10.968;2023-12-20T00:29:25;5.20;99.90
5834;DHT22;2943;48.012;10.968;2023-12-20T00:31:53;5.20;99.90
5834;DHT22;2943;48.012;10.968;2023-12-20T00:34:21;5.30;99.90
5834;DHT22;2943;48.012;10.968;2023-12-20T00:36:48;5.30;99.90
5834;DHT22;2943;48.012;10.968;2023-12-20T00:39:15;5.30;99.90
5834;DHT22;2943;48.012;10.968;2023-12-20T00:41:42;5.30;99.90
5834;DHT22;2943;48.012;10.968;2023-12-20T00:44:09;5.30;99.90
5834;DHT22;2943;48.012;10.968;2023-12-20T00:46:36;5.40;99.90
5834;DHT22;2943;48.012;10.968;2023-12-20T00:49:04;5.40;99.90
5834;DHT22;2943;48.012;10.968;2023-12-20T00:51:31;5.40;99.90
5834;DHT22;2943;48.012;10.968;2023-12-20T00:53:59;5.40;99.90
5834;DHT22;2943;48.012;10.968;2023-12-20T00:56:30;5.40;99.90
5834;DHT22;2943;48.012;10.968;2023-12-20T00:58:57;5.40;99.90
5834;DHT22;2943;48.012;10.968;2023-12-20T01:01:24;5.40;99.90
5834;DHT22;2943;48.012;10.968;2023-12-20T01:03:51;5.40;99.90
5834;DHT22;2943;48.012;10.968;2023-12-20T01:06:19;5.40;99.90
5834;DHT22;2943;48.012;10.968;2023-12-20T01:08:46;5.40;99.90
5834;DHT22;2943;48.012;10.968;2023-12-20T01:11:16;5.50;99.90
5834;DHT22;2943;48.012;10.968;2023-12-20T01:13:43;5.50;99.90
5834;DHT22;2943;48.012;10.968;2023-12-20T01:16:10;5.50;99.90
5834;DHT22;2943;48.012;10.968;2023-12-20T01:18:37;5.50;99.90
5834;DHT22;2943;48.012;10.968;2023-12-20T01:21:05;5.60;99.90
5834;DHT22;2943;48.012;10.968;2023-12-20T01:23:34;5.60;99.90
5834;DHT22;2943;48.012;10.968;2023-12-20T01:26:00;5.60;99.90
5834;DHT22;2943;48.012;10.968;2023-12-20T01:28:28;5.60;99.90
5834;DHT22;2943;48.012;10.968;2023-12-20T01:30:55;5.70;99.90
5834;DHT22;2943;48.012;10.968;2023-12-20T01:33:22;5.70;99.90
5834;DHT22;2943;48.012;10.968;2023-12-20T01:35:49;5.70;99.90
5834;DHT22;2943;48.012;10.968;2023-12-20T01:38:16;5.70;99.90
5834;DHT22;2943;48.012;10.968;2023-12-20T01:40:45;5.70;99.90
5834;DHT22;2943;48.012;10.968;2023-12-20T01:43:13;5.70;99.90
5834;DHT22;2943;48.012;10.968;2023-12-20T01:45:40;5.80;99.90
5834;DHT22;2943;48.012;10.968;2023-12-20T01:48:08;5.80;99.90
5834;DHT22;2943;48.012;10.968;2023-12-20T01:50:37;5.80;99.90
5834;DHT22;2943;48.012;10.968;2023-12-20T01:53:07;5.80;99.90
5834;DHT22;2943;48.012;10.968;2023-12-20T01:55:37;5.80;99.90
5834;DHT22;2943;48.012;10.968;2023-12-20T01:58:07;5.80;99.90
5834;DHT22;2943;48.012;10.968;2023-12-20T02:00:36;5.70;99.90
5834;DHT22;2943;48.012;10.968;2023-12-20T02:03:03;5.70;99.90
5834;DHT22;2943;48.012;10.968;2023-12-20T02:05:31;5.70;99.90
5834;DHT22;2943;48.012;10.968;2023-12-20T02:08:01;5.70;99.90
5834;DHT22;2943;48.012;10.968;2023-12-20T02:10:28;5.60;99.90
5834;DHT22;2943;48.012;10.968;2023-12-20T02:12:57;5.60;99.90
5834;DHT22;2943;48.012;10.968;2023-12-20T02:15:25;5.60;99.90
5834;DHT22;2943;48.012;10.968;2023-12-20T02:17:53;5.50;99.90
5834;DHT22;2943;48.012;10.968;2023-12-20T02:20:21;5.60;99.90
5834;DHT22;2943;48.012;10.968;2023-12-20T02:22:50;5.60;99.90
5834;DHT22;2943;48.012;10.968;2023-12-20T02:25:16;5.60;99.90
5834;DHT22;2943;48.012;10.968;2023-12-20T02:27:43;5.60;99.90
5834;DHT22;2943;48.012;10.968;2023-12-20T02:30:10;5.60;99.90
5834;DHT22;2943;48.012;10.968;2023-12-20T02:32:38;5.50;99.90
5834;DHT22;2943;48.012;10.968;2023-12-20T02:35:05;5.50;99.90
5834;DHT22;2943;48.012;10.968;2023-12-20T02:37:32;5.50;99.90
5834;DHT22;2943;48.012;10.968;2023-12-20T02:40:01;5.50;99.90
5834;DHT22;2943;48.012;10.968;2023-12-20T02:42:30;5.50;99.90
5834;DHT22;2943;48.012;10.968;2023-12-20T02:44:56;5.50;99.90
5834;DHT22;2943;48.012;10.968;2023-12-20T02:47:23;5.50;99.90
5834;DHT22;2943;48.012;10.968;2023-12-20T02:49:50;5.50;99.90
5834;DHT22;2943;48.012;10.968;2023-12-20T02:52:18;5.50;99.90
5834;DHT22;2943;48.012;10.968;2023-12-20T02:54:45;5.50;99.90
5834;DHT22;2943;48.012;10.968;2023-12-20T02:57:13;5.50;99.90
5834;DHT22;2943;48.012;10.968;2023-12-20T02:59:40;5.50;99.90
5834;DHT22;2943;48.012;10.968;2023-12-20T03:02:07;5.50;99.90
5834;DHT22;2943;48.012;10.968;2023-12-20T03:04:34;5.50;99.90
5834;DHT22;2943;48.012;10.968;2023-12-20T03:07:01;5.50;99.90
5834;DHT22;2943;48.012;10.968;2023-12-20T03:09:28;5.50;99.90
5834;DHT22;2943;48.012;10.968;2023-12-20T03:11:54;5.50;99.90
5834;DHT22;2943;48.012;10.968;2023-12-20T03:14:23;5.50;99.90
5834;DHT22;2943;48.012;10.968;2023-12-20T03:16:50;5.50;99.90
5834;DHT22;2943;48.012;10.968;2023-12-20T03:19:18;5.50;99.90
5834;DHT22;2943;48.012;10.968;2023-12-20T03:21:45;5.50;99.90
5834;DHT22;2943;48.012;10.968;2023-12-20T03:24:12;5.50;99.90
5834;DHT22;2943;48.012;10.968;2023-12-20T03:26:39;5.50;99.90
5834;DHT22;2943;48.012;10.968;2023-12-20T03:29:08;5.40;99.90
5834;DHT22;2943;48.012;10.968;2023-12-20T03:31:36;5.40;99.90
5834;DHT22;2943;48.012;10.968;2023-12-20T03:34:03;5.40;99.90
5834;DHT22;2943;48.012;10.968;2023-12-20T03:36:30;5.40;99.90
5834;DHT22;2943;48.012;10.968;2023-12-20T03:38:57;5.40;99.90
5834;DHT22;2943;48.012;10.968;2023-12-20T03:41:24;5.40;99.90
5834;DHT22;2943;48.012;10.968;2023-12-20T03:43:51;5.30;99.90
5834;DHT22;2943;48.012;10.968;2023-12-20T03:46:18;5.30;99.90
5834;DHT22;2943;48.012;10.968;2023-12-20T03:48:46;5.30;99.90
5834;DHT22;2943;48.012;10.968;2023-12-20T03:51:12;5.30;99.90
5834;DHT22;2943;48.012;10.968;2023-12-20T03:53:40;5.20;99.90
5834;DHT22;2943;48.012;10.968;2023-12-20T03:56:08;5.20;99.90
5834;DHT22;2943;48.012;10.968;2023-12-20T03:58:34;5.20;99.90
5834;DHT22;2943;48.012;10.968;2023-12-20T04:01:01;5.10;99.90
5834;DHT22;2943;48.012;10.968;2023-12-20T04:03:29;5.10;99.90
5834;DHT22;2943;48.012;10.968;2023-12-20T04:06:03;5.10;99.90
5834;DHT22;2943;48.012;10.968;2023-12-20T04:08:30;5.10;99.90
5834;DHT22;2943;48.012;10.968;2023-12-20T04:10:58;5.10;99.90
5834;DHT22;2943;48.012;10.968;2023-12-20T04:13:25;5.00;99.90
5834;DHT22;2943;48.012;10.968;2023-12-20T04:15:52;5.00;99.90
5834;DHT22;2943;48.012;10.968;2023-12-20T04:18:19;5.00;99.90
5834;DHT22;2943;48.012;10.968;2023-12-20T04:20:47;5.00;99.90
5834;DHT22;2943;48.012;10.968;2023-12-20T04:23:17;5.00;99.90
5834;DHT22;2943;48.012;10.968;2023-12-20T04:25:46;5.00;99.90
5834;DHT22;2943;48.012;10.968;2023-12-20T04:28:16;4.90;99.90
5834;DHT22;2943;48.012;10.968;2023-12-20T04:30:45;4.90;99.90
5834;DHT22;2943;48.012;10.968;2023-12-20T04:33:12;4.90;99.90
5834;DHT22;2943;48.012;10.968;2023-12-20T04:35:42;4.90;99.90
5834;DHT22;2943;48.012;10.968;2023-12-20T04:38:12;4.90;99.90
5834;DHT22;2943;48.012;10.968;2023-12-20T04:40:40;4.90;99.90
5834;DHT22;2943;48.012;10.968;2023-12-20T04:43:09;4.80;99.90
5834;DHT22;2943;48.012;10.968;2023-12-20T04:45:36;4.80;99.90
5834;DHT22;2943;48.012;10.968;2023-12-20T04:48:04;4.80;99.90
5834;DHT22;2943;48.012;10.968;2023-12-20T04:50:33;4.80;99.90
5834;DHT22;2943;48.012;10.968;2023-12-20T04:53:00;4.70;99.90
5834;DHT22;2943;48.012;10.968;2023-12-20T04:55:31;4.70;99.90
5834;DHT22;2943;48.012;10.968;2023-12-20T04:58:00;4.70;99.90
5834;DHT22;2943;48.012;10.968;2023-12-20T05:00:27;4.60;99.90
5834;DHT22;2943;48.012;10.968;2023-12-20T05:02:54;4.60;99.90
5834;DHT22;2943;48.012;10.968;2023-12-20T05:05:21;4.60;99.90
5834;DHT22;2943;48.012;10.968;2023-12-20T05:07:49;4.50;99.90
5834;DHT22;2943;48.012;10.968;2023-12-20T05:10:17;4.50;99.90
5834;DHT22;2943;48.012;10.968;2023-12-20T05:12:44;4.40;99.90
5834;DHT22;2943;48.012;10.968;2023-12-20T05:15:12;4.40;99.90
5834;DHT22;2943;48.012;10.968;2023-12-20T05:17:39;4.40;99.90
5834;DHT22;2943;48.012;10.968;2023-12-20T05:20:09;4.40;99.90
5834;DHT22;2943;48.012;10.968;2023-12-20T05:22:36;4.30;99.90
5834;DHT22;2943;48.012;10.968;2023-12-20T05:25:05;4.30;99.90
5834;DHT22;2943;48.012;10.968;2023-12-20T05:27:32;4.20;99.90
5834;DHT22;2943;48.012;10.968;2023-12-20T05:29:59;4.20;99.90
5834;DHT22;2943;48.012;10.968;2023-12-20T05:32:28;4.10;99.90
5834;DHT22;2943;48.012;10.968;2023-12-20T05:34:55;4.10;99.90
5834;DHT22;2943;48.012;10.968;2023-12-20T05:37:23;4.00;99.90
5834;DHT22;2943;48.012;10.968;2023-12-20T05:39:52;4.00;99.90
5834;DHT22;2943;48.012;10.968;2023-12-20T05:42:19;3.90;99.90
5834;DHT22;2943;48.012;10.968;2023-12-20T05:44:46;3.90;99.90
5834;DHT22;2943;48.012;10.968;2023-12-20T05:47:13;3.90;99.90
5834;DHT22;2943;48.012;10.968;2023-12-20T05:49:42;3.80;99.90
5834;DHT22;2943;48.012;10.968;2023-12-20T05:52:09;3.80;99.90
5834;DHT22;2943;48.012;10.968;2023-12-20T05:54:36;3.80;99.90
5834;DHT22;2943;48.012;10.968;2023-12-20T05:57:04;3.70;99.90
5834;DHT22;2943;48.012;10.968;2023-12-20T05:59:31;3.70;99.90
5834;DHT22;2943;48.012;10.968;2023-12-20T06:01:59;3.70;99.90
5834;DHT22;2943;48.012;10.968;2023-12-20T06:04:26;3.70;99.90
5834;DHT22;2943;48.012;10.968;2023-12-20T06:06:55;3.60;99.90
5834;DHT22;2943;48.012;10.968;2023-12-20T06:09:26;3.70;99.90
5834;DHT22;2943;48.012;10.968;2023-12-20T06:11:54;3.60;99.90
5834;DHT22;2943;48.012;10.968;2023-12-20T06:14:23;3.60;99.90
5834;DHT22;2943;48.012;10.968;2023-12-20T06:16:50;3.60;99.90
5834;DHT22;2943;48.012;10.968;2023-12-20T06:19:20;3.60;99.90
5834;DHT22;2943;48.012;10.968;2023-12-20T06:21:47;3.60;99.90
5834;DHT22;2943;48.012;10.968;2023-12-20T06:24:16;3.60;99.90
5834;DHT22;2943;48.012;10.968;2023-12-20T06:26:44;3.50;99.90
5834;DHT22;2943;48.012;10.968;2023-12-20T06:29:11;3.50;99.90
5834;DHT22;2943;48.012;10.968;2023-12-20T06:31:40;3.50;99.90
5834;DHT22;2943;48.012;10.968;2023-12-20T06:34:09;3.40;99.90
5834;DHT22;2943;48.012;10.968;2023-12-20T06:36:36;3.40;99.90
5834;DHT22;2943;48.012;10.968;2023-12-20T06:39:04;3.40;99.90
5834;DHT22;2943;48.012;10.968;2023-12-20T06:41:34;3.30;99.90
5834;DHT22;2943;48.012;10.968;2023-12-20T06:44:01;3.30;99.90
5834;DHT22;2943;48.012;10.968;2023-12-20T06:46:28;3.20;99.90
5834;DHT22;2943;48.012;10.968;2023-12-20T06:48:55;3.20;99.90
5834;DHT22;2943;48.012;10.968;2023-12-20T06:51:22;3.20;99.90
5834;DHT22;2943;48.012;10.968;2023-12-20T06:53:52;3.10;99.90
5834;DHT22;2943;48.012;10.968;2023-12-20T06:56:19;3.10;99.90
5834;DHT22;2943;48.012;10.968;2023-12-20T06:58:48;3.10;99.90
5834;DHT22;2943;48.012;10.968;2023-12-20T07:01:16;3.00;99.90
5834;DHT22;2943;48.012;10.968;2023-12-20T07:03:43;3.10;99.90
5834;DHT22;2943;48.012;10.968;2023-12-20T07:06:10;3.10;99.90
5834;DHT22;2943;48.012;10.968;2023-12-20T07:08:37;3.10;99.90
5834;DHT22;2943;48.012;10.968;2023-12-20T07:11:04;3.10;99.90
5834;DHT22;2943;48.012;10.968;2023-12-20T07:13:31;3.00;99.90
5834;DHT22;2943;48.012;10.968;2023-12-20T07:16:00;3.10;99.90
5834;DHT22;2943;48.012;10.968;2023-12-20T07:18:27;3.10;99.90
5834;DHT22;2943;48.012;10.968;2023-12-20T07:20:54;3.00;99.90
5834;DHT22;2943;48.012;10.968;2023-12-20T07:23:21;3.10;99.90
5834;DHT22;2943;48.012;10.968;2023-12-20T07:25:52;3.00;99.90
5834;DHT22;2943;48.012;10.968;2023-12-20T07:28:19;3.00;99.90
5834;DHT22;2943;48.012;10.968;2023-12-20T07:30:46;3.10;99.90
5834;DHT22;2943;48.012;10.968;2023-12-20T07:33:14;3.10;99.90
5834;DHT22;2943;48.012;10.968;2023-12-20T07:35:41;3.10;99.90
5834;DHT22;2943;48.012;10.968;2023-12-20T07:38:10;3.10;99.90
5834;DHT22;2943;48.012;10.968;2023-12-20T07:40:37;3.10;99.90
5834;DHT22;2943;48.012;10.968;2023-12-20T07:43:04;3.10;99.90
5834;DHT22;2943;48.012;10.968;2023-12-20T07:45:32;3.10;99.90
5834;DHT22;2943;48.012;10.968;2023-12-20T07:47:58;3.10;99.90
5834;DHT22;2943;48.012;10.968;2023-12-20T07:50:27;3.10;99.90
5834;DHT22;2943;48.012;10.968;2023-12-20T07:52:54;3.10;99.90
5834;DHT22;2943;48.012;10.968;2023-12-20T07:55:21;3.10;99.90
5834;DHT22;2943;48.012;10.968;2023-12-20T07:57:48;3.10;99.90
5834;DHT22;2943;48.012;10.968;2023-12-20T08:00:16;3.10;99.90
5834;DHT22;2943;48.012;10.968;2023-12-20T08:02:42;3.10;99.90
5834;DHT22;2943;48.012;10.968;2023-12-20T08:05:09;3.10;99.90
5834;DHT22;2943;48.012;10.968;2023-12-20T08:07:38;3.10;99.90
5834;DHT22;2943;48.012;10.968;2023-12-20T08:10:06;3.10;99.90
5834;DHT22;2943;48.012;10.968;2023-12-20T08:12:33;3.10;99.90
5834;DHT22;2943;48.012;10.968;2023-12-20T08:15:00;3.10;99.90
5834;DHT22;2943;48.012;10.968;2023-12-20T08:17:27;3.10;99.90
5834;DHT22;2943;48.012;10.968;2023-12-20T08:19:54;3.10;99.90
5834;DHT22;2943;48.012;10.968;2023-12-20T08:22:24;3.10;99.90
5834;DHT22;2943;48.012;10.968;2023-12-20T08:24:53;3.10;99.90
5834;DHT22;2943;48.012;10.968;2023-12-20T08:27:21;3.10;99.90
5834;DHT22;2943;48.012;10.968;2023-12-20T08:29:48;3.10;99.90
5834;DHT22;2943;48.012;10.968;2023-12-20T08:32:16;3.10;99.90
5834;DHT22;2943;48.012;10.968;2023-12-20T08:34:43;3.10;99.90
5834;DHT22;2943;48.012;10.968;2023-12-20T08:37:10;3.10;99.90
5834;DHT22;2943;48.012;10.968;2023-12-20T08:39:37;3.10;99.90
5834;DHT22;2943;48.012;10.968;2023-12-20T08:42:07;3.10;99.90
5834;DHT22;2943;48.012;10.968;2023-12-20T08:44:34;3.20;99.90
5834;DHT22;2943;48.012;10.968;2023-12-20T08:47:01;3.20;99.90
5834;DHT22;2943;48.012;10.968;2023-12-20T08:49:28;3.20;99.90
5834;DHT22;2943;48.012;10.968;2023-12-20T08:51:57;3.20;99.90
5834;DHT22;2943;48.012;10.968;2023-12-20T08:54:27;3.20;99.90
5834;DHT22;2943;48.012;10.968;2023-12-20T08:56:54;3.20;99.90
5834;DHT22;2943;48.012;10.968;2023-12-20T08:59:23;3.20;99.90
5834;DHT22;2943;48.012;10.968;2023-12-20T09:01:51;3.30;99.90
5834;DHT22;2943;48.012;10.968;2023-12-20T09:04:20;3.30;99.90
5834;DHT22;2943;48.012;10.968;2023-12-20T09:06:47;3.40;99.90
5834;DHT22;2943;48.012;10.968;2023-12-20T09:09:13;3.40;99.90
5834;DHT22;2943;48.012;10.968;2023-12-20T09:11:40;3.40;99.90
5834;DHT22;2943;48.012;10.968;2023-12-20T09:14:07;3.40;99.90
5834;DHT22;2943;48.012;10.968;2023-12-20T09:16:37;3.40;99.90
5834;DHT22;2943;48.012;10.968;2023-12-20T09:19:06;3.40;99.90
5834;DHT22;2943;48.012;10.968;2023-12-20T09:21:33;3.40;99.90
5834;DHT22;2943;48.012;10.968;2023-12-20T09:24:00;3.50;99.90
5834;DHT22;2943;48.012;10.968;2023-12-20T09:26:27;3.50;99.90
5834;DHT22;2943;48.012;10.968;2023-12-20T09:28:54;3.50;99.90
5834;DHT22;2943;48.012;10.968;2023-12-20T09:31:21;3.50;99.90
5834;DHT22;2943;48.012;10.968;2023-12-20T09:33:52;3.50;99.90
5834;DHT22;2943;48.012;10.968;2023-12-20T09:36:21;3.50;99.90
5834;DHT22;2943;48.012;10.968;2023-12-20T09:38:48;3.50;99.90
5834;DHT22;2943;48.012;10.968;2023-12-20T09:41:15;3.60;99.90
5834;DHT22;2943;48.012;10.968;2023-12-20T09:43:42;3.60;99.90
5834;DHT22;2943;48.012;10.968;2023-12-20T09:46:10;3.60;99.90
5834;DHT22;2943;48.012;10.968;2023-12-20T09:48:39;3.60;99.90
5834;DHT22;2943;48.012;10.968;2023-12-20T09:51:09;3.60;99.90
5834;DHT22;2943;48.012;10.968;2023-12-20T09:53:37;3.60;99.90
5834;DHT22;2943;48.012;10.968;2023-12-20T09:56:06;3.70;99.90
5834;DHT22;2943;48.012;10.968;2023-12-20T09:58:36;3.70;99.90
5834;DHT22;2943;48.012;10.968;2023-12-20T10:01:03;3.70;99.90
5834;DHT22;2943;48.012;10.968;2023-12-20T10:03:31;3.70;99.90
5834;DHT22;2943;48.012;10.968;2023-12-20T10:05:59;3.80;99.90
5834;DHT22;2943;48.012;10.968;2023-12-20T10:08:29;3.80;99.90
5834;DHT22;2943;48.012;10.968;2023-12-20T10:10:57;4.00;99.90
5834;DHT22;2943;48.012;10.968;2023-12-20T10:13:31;4.00;99.90
5834;DHT22;2943;48.012;10.968;2023-12-20T10:15:59;4.00;99.90
5834;DHT22;2943;48.012;10.968;2023-12-20T10:18:29;4.00;99.90
5834;DHT22;2943;48.012;10.968;2023-12-20T10:20:56;4.10;99.90
5834;DHT22;2943;48.012;10.968;2023-12-20T10:23:23;4.10;99.90
5834;DHT22;2943;48.012;10.968;2023-12-20T10:25:57;4.10;99.90
5834;DHT22;2943;48.012;10.968;2023-12-20T10:28:33;4.10;99.90
5834;DHT22;2943;48.012;10.968;2023-12-20T10:31:00;4.00;99.90
5834;DHT22;2943;48.012;10.968;2023-12-20T10:33:28;4.10;99.90
5834;DHT22;2943;48.012;10.968;2023-12-20T10:35:57;4.10;99.90
5834;DHT22;2943;48.012;10.968;2023-12-20T10:38:24;4.10;99.90
5834;DHT22;2943;48.012;10.968;2023-12-20T10:41:06;4.10;99.90
5834;DHT22;2943;48.012;10.968;2023-12-20T10:43:38;4.10;99.90
5834;DHT22;2943;48.012;10.968;2023-12-20T10:46:06;4.00;99.90
5834;DHT22;2943;48.012;10.968;2023-12-20T10:48:34;4.00;99.90
5834;DHT22;2943;48.012;10.968;2023-12-20T10:51:03;4.00;99.90
5834;DHT22;2943;48.012;10.968;2023-12-20T10:53:39;4.00;99.90
5834;DHT22;2943;48.012;10.968;2023-12-20T10:56:09;4.00;99.90
5834;DHT22;2943;48.012;10.968;2023-12-20T10:58:42;4.00;99.90
5834;DHT22;2943;48.012;10.968;2023-12-20T11:01:12;4.00;99.90
5834;DHT22;2943;48.012;10.968;2023-12-20T11:03:44;4.00;99.90
5834;DHT22;2943;48.012;10.968;2023-12-20T11:06:25;4.00;99.90
5834;DHT22;2943;48.012;10.968;2023-12-20T11:09:00;4.10;99.90
5834;DHT22;2943;48.012;10.968;2023-12-20T11:11:47;4.10;99.90
5834;DHT22;2943;48.012;10.968;2023-12-20T11:14:22;4.00;99.90
5834;DHT22;2943;48.012;10.968;2023-12-20T11:16:50;4.10;99.90
5834;DHT22;2943;48.012;10.968;2023-12-20T11:19:17;4.10;99.90
5834;DHT22;2943;48.012;10.968;2023-12-20T11:21:46;4.10;99.90
5834;DHT22;2943;48.012;10.968;2023-12-20T11:24:21;4.10;99.90
5834;DHT22;2943;48.012;10.968;2023-12-20T11:26:56;4.10;99.90
5834;DHT22;2943;48.012;10.968;2023-12-20T11:29:30;4.10;99.90
5834;DHT22;2943;48.012;10.968;2023-12-20T11:32:00;4.10;99.90
5834;DHT22;2943;48.012;10.968;2023-12-20T11:34:32;4.20;99.90
5834;DHT22;2943;48.012;10.968;2023-12-20T11:37:03;4.10;99.90
5834;DHT22;2943;48.012;10.968;2023-12-20T11:39:31;4.20;99.90
5834;DHT22;2943;48.012;10.968;2023-12-20T11:42:04;4.20;99.90
5834;DHT22;2943;48.012;10.968;2023-12-20T11:44:33;4.20;99.90
5834;DHT22;2943;48.012;10.968;2023-12-20T11:47:04;4.20;99.90
5834;DHT22;2943;48.012;10.968;2023-12-20T11:49:31;4.30;99.90
5834;DHT22;2943;48.012;10.968;2023-12-20T11:51:59;4.30;99.90
5834;DHT22;2943;48.012;10.968;2023-12-20T11:54:26;4.30;99.90
5834;DHT22;2943;48.012;10.968;2023-12-20T11:56:53;4.40;99.90
5834;DHT22;2943;48.012;10.968;2023-12-20T11:59:21;4.40;99.90
5834;DHT22;2943;48.012;10.968;2023-12-20T12:01:50;4.40;99.90
5834;DHT22;2943;48.012;10.968;2023-12-20T12:04:18;4.50;99.90
5834;DHT22;2943;48.012;10.968;2023-12-20T12:06:45;4.50;99.90
5834;DHT22;2943;48.012;10.968;2023-12-20T12:09:12;4.50;99.90
5834;DHT22;2943;48.012;10.968;2023-12-20T12:11:41;4.50;99.90
5834;DHT22;2943;48.012;10.968;2023-12-20T12:14:08;4.50;99.90
5834;DHT22;2943;48.012;10.968;2023-12-20T12:16:37;4.50;99.90
5834;DHT22;2943;48.012;10.968;2023-12-20T12:19:04;4.50;99.90
5834;DHT22;2943;48.012;10.968;2023-12-20T12:21:31;4.50;99.90
5834;DHT22;2943;48.012;10.968;2023-12-20T12:24:06;4.50;99.90
5834;DHT22;2943;48.012;10.968;2023-12-20T12:26:36;4.50;99.90
5834;DHT22;2943;48.012;10.968;2023-12-20T12:29:03;4.50;99.90
5834;DHT22;2943;48.012;10.968;2023-12-20T12:31:30;4.50;99.90
5834;DHT22;2943;48.012;10.968;2023-12-20T12:33:59;4.50;99.90
5834;DHT22;2943;48.012;10.968;2023-12-20T12:36:29;4.50;99.90
5834;DHT22;2943;48.012;10.968;2023-12-20T12:38:56;4.50;99.90
5834;DHT22;2943;48.012;10.968;2023-12-20T12:41:24;4.50;99.90
5834;DHT22;2943;48.012;10.968;2023-12-20T12:43:52;4.50;99.90
5834;DHT22;2943;48.012;10.968;2023-12-20T12:46:19;4.50;99.90
5834;DHT22;2943;48.012;10.968;2023-12-20T12:48:47;4.50;99.90
5834;DHT22;2943;48.012;10.968;2023-12-20T12:51:17;4.60;99.90
5834;DHT22;2943;48.012;10.968;2023-12-20T12:53:44;4.60;99.90
5834;DHT22;2943;48.012;10.968;2023-12-20T12:56:13;4.60;99.90
5834;DHT22;2943;48.012;10.968;2023-12-20T12:58:40;4.60;99.90
5834;DHT22;2943;48.012;10.968;2023-12-20T13:01:14;4.70;99.90
5834;DHT22;2943;48.012;10.968;2023-12-20T13:03:41;4.70;99.90
5834;DHT22;2943;48.012;10.968;2023-12-20T13:06:11;4.80;99.90
5834;DHT22;2943;48.012;10.968;2023-12-20T13:08:40;4.80;99.90
5834;DHT22;2943;48.012;10.968;2023-12-20T13:11:07;4.80;99.90
5834;DHT22;2943;48.012;10.968;2023-12-20T13:13:34;4.70;99.90
5834;DHT22;2943;48.012;10.968;2023-12-20T13:16:00;4.70;99.90
5834;DHT22;2943;48.012;10.968;2023-12-20T13:18:27;4.70;99.90
5834;DHT22;2943;48.012;10.968;2023-12-20T13:20:54;4.70;99.90
5834;DHT22;2943;48.012;10.968;2023-12-20T13:23:21;4.70;99.90
5834;DHT22;2943;48.012;10.968;2023-12-20T13:25:49;4.70;99.90
5834;DHT22;2943;48.012;10.968;2023-12-20T13:28:16;4.70;99.90
5834;DHT22;2943;48.012;10.968;2023-12-20T13:30:43;4.60;99.90
5834;DHT22;2943;48.012;10.968;2023-12-20T13:33:11;4.60;99.90
5834;DHT22;2943;48.012;10.968;2023-12-20T13:35:38;4.50;99.90
5834;DHT22;2943;48.012;10.968;2023-12-20T13:38:13;4.30;99.90
5834;DHT22;2943;48.012;10.968;2023-12-20T13:40:40;4.10;99.90
5834;DHT22;2943;48.012;10.968;2023-12-20T13:43:09;4.10;99.90
5834;DHT22;2943;48.012;10.968;2023-12-20T13:45:36;4.00;99.90
5834;DHT22;2943;48.012;10.968;2023-12-20T13:48:03;4.00;99.90
5834;DHT22;2943;48.012;10.968;2023-12-20T13:50:31;3.80;99.90
5834;DHT22;2943;48.012;10.968;2023-12-20T13:52:59;3.80;99.90
5834;DHT22;2943;48.012;10.968;2023-12-20T13:55:26;3.80;99.90
5834;DHT22;2943;48.012;10.968;2023-12-20T13:57:53;3.70;99.90
5834;DHT22;2943;48.012;10.968;2023-12-20T14:00:21;3.70;99.90
5834;DHT22;2943;48.012;10.968;2023-12-20T14:02:48;3.60;99.90
5834;DHT22;2943;48.012;10.968;2023-12-20T14:05:16;3.60;99.90
5834;DHT22;2943;48.012;10.968;2023-12-20T14:07:43;3.60;99.90
5834;DHT22;2943;48.012;10.968;2023-12-20T14:10:11;3.60;99.90
5834;DHT22;2943;48.012;10.968;2023-12-20T14:12:38;3.50;99.90
5834;DHT22;2943;48.012;10.968;2023-12-20T14:15:06;3.50;99.90
5834;DHT22;2943;48.012;10.968;2023-12-20T14:17:37;3.50;99.90
5834;DHT22;2943;48.012;10.968;2023-12-20T14:20:06;3.50;99.90
5834;DHT22;2943;48.012;10.968;2023-12-20T14:22:33;3.50;99.90
5834;DHT22;2943;48.012;10.968;2023-12-20T14:25:00;3.50;99.90
5834;DHT22;2943;48.012;10.968;2023-12-20T14:27:27;3.40;99.90
5834;DHT22;2943;48.012;10.968;2023-12-20T14:29:54;3.40;99.90
5834;DHT22;2943;48.012;10.968;2023-12-20T14:32:21;3.40;99.90
5834;DHT22;2943;48.012;10.968;2023-12-20T14:34:50;3.40;99.90
5834;DHT22;2943;48.012;10.968;2023-12-20T14:37:17;3.40;99.90
5834;DHT22;2943;48.012;10.968;2023-12-20T14:39:44;3.40;99.90
5834;DHT22;2943;48.012;10.968;2023-12-20T14:42:11;3.40;99.90
5834;DHT22;2943;48.012;10.968;2023-12-20T14:44:39;3.40;99.90
5834;DHT22;2943;48.012;10.968;2023-12-20T14:47:06;3.40;99.90
5834;DHT22;2943;48.012;10.968;2023-12-20T14:49:34;3.40;99.90
5834;DHT22;2943;48.012;10.968;2023-12-20T14:52:02;3.40;99.90
5834;DHT22;2943;48.012;10.968;2023-12-20T14:54:29;3.40;99.90
5834;DHT22;2943;48.012;10.968;2023-12-20T14:56:57;3.40;99.90
5834;DHT22;2943;48.012;10.968;2023-12-20T14:59:24;3.40;99.90
5834;DHT22;2943;48.012;10.968;2023-12-20T15:01:52;3.40;99.90
5834;DHT22;2943;48.012;10.968;2023-12-20T15:04:19;3.40;99.90
5834;DHT22;2943;48.012;10.968;2023-12-20T15:06:53;3.30;99.90
5834;DHT22;2943;48.012;10.968;2023-12-20T15:09:21;3.30;99.90
5834;DHT22;2943;48.012;10.968;2023-12-20T15:11:49;3.40;99.90
5834;DHT22;2943;48.012;10.968;2023-12-20T15:14:16;3.40;99.90
5834;DHT22;2943;48.012;10.968;2023-12-20T15:16:45;3.40;99.90
5834;DHT22;2943;48.012;10.968;2023-12-20T15:19:12;3.40;99.90
5834;DHT22;2943;48.012;10.968;2023-12-20T15:21:40;3.30;99.90
5834;DHT22;2943;48.012;10.968;2023-12-20T15:24:08;3.40;99.90
5834;DHT22;2943;48.012;10.968;2023-12-20T15:26:43;3.40;99.90
5834;DHT22;2943;48.012;10.968;2023-12-20T15:29:10;3.30;99.90
5834;DHT22;2943;48.012;10.968;2023-12-20T15:31:42;3.30;99.90
5834;DHT22;2943;48.012;10.968;2023-12-20T15:34:09;3.40;99.90
5834;DHT22;2943;48.012;10.968;2023-12-20T15:36:37;3.40;99.90
5834;DHT22;2943;48.012;10.968;2023-12-20T15:39:04;3.40;99.90
5834;DHT22;2943;48.012;10.968;2023-12-20T15:41:32;3.40;99.90
5834;DHT22;2943;48.012;10.968;2023-12-20T15:44:00;3.30;99.90
5834;DHT22;2943;48.012;10.968;2023-12-20T15:46:28;3.30;99.90
5834;DHT22;2943;48.012;10.968;2023-12-20T15:48:55;3.30;99.90
5834;DHT22;2943;48.012;10.968;2023-12-20T15:51:23;3.20;99.90
5834;DHT22;2943;48.012;10.968;2023-12-20T15:53:50;3.20;99.90
5834;DHT22;2943;48.012;10.968;2023-12-20T15:56:17;3.20;99.90
5834;DHT22;2943;48.012;10.968;2023-12-20T15:58:44;3.10;99.90
5834;DHT22;2943;48.012;10.968;2023-12-20T16:01:12;3.00;99.90
5834;DHT22;2943;48.012;10.968;2023-12-20T16:03:39;3.00;99.90
5834;DHT22;2943;48.012;10.968;2023-12-20T16:06:09;3.00;99.90
5834;DHT22;2943;48.012;10.968;2023-12-20T16:08:35;3.00;99.90